Terminal Aerodrome Forecast
Issued by NWS Omaha/Valley, NE

Home | Current Version | Previous Version | Text Only | Print | Product List | Glossary On
Versions: 1 2 3 4 5 6 7 8 9 10 11 12 13 14 15 16 17 18 19 20 21 22 23 24 25 26 27 28 29 30 31 32 33 34 35 36 37 38 39 40 41 42 43 44
000
FTUS43 KOAX 302320
TAFOFK
TAF
KOFK 302320Z 0100/0124 01015G25KT 5SM -RASN OVC012
      TEMPO 0100/0103 2SM -SN OVC007
     FM010300 36019G27KT 2SM -SN BR OVC005
     FM011000 34018G25KT 3SM -SN OVC008
     FM011300 32019G27KT P6SM VCSH OVC008
     FM011500 32022G30KT P6SM BKN015=

USA.gov is the U.S. government's official web portal to all federal, state and local government web resources and services.